Terminal Aerodrome Forecast
Issued by NWS Amarillo, TX

Home | Current Version | Previous Version | Text Only | Print | Product List | Glossary On
Versions: 1 2 3 4 5 6 7 8 9 10 11 12 13 14 15 16 17 18 19 20 21 22
000
FTUS44 KAMA 180500
TAFAMA
TAF
KAMA 180520Z 1806/1906 14006KT P6SM SCT040
     FM180800 17006KT 5SM BR SCT006
      TEMPO 1810/1814 1SM BR BKN005
     FM181500 18016G26KT P6SM SKC
     FM190200 16016KT P6SM SCT200=

USA.gov is the U.S. government's official web portal to all federal, state and local government web resources and services.